createdAt,value
2023-04-02T00:01:38.528Z,99781.16
2023-04-02T00:04:14.887Z,99779.81
2023-04-02T00:06:46.627Z,99785.03
2023-04-02T00:09:14.539Z,99790.41
2023-04-02T00:11:48.838Z,99787.75
2023-04-02T00:14:29.469Z,99794.41
2023-04-02T00:17:00.360Z,99789.06
2023-04-02T00:19:47.853Z,99787.38
2023-04-02T00:22:27.442Z,99783.06
2023-04-02T00:24:58.004Z,99788.09
2023-04-02T00:27:25.970Z,99791.41
2023-04-02T00:29:56.427Z,99796.09
2023-04-02T00:32:31.335Z,99796.75
2023-04-02T00:35:00.220Z,99796.41
2023-04-02T00:37:39.229Z,99797.25
2023-04-02T00:40:20.101Z,99797.22
2023-04-02T00:42:50.173Z,99791.41
2023-04-02T00:45:25.412Z,99799.41
2023-04-02T00:47:53.362Z,99794.38
2023-04-02T00:50:29.118Z,99796.91
2023-04-02T00:53:00.184Z,99799.41
2023-04-02T00:55:37.068Z,99798.22
2023-04-02T00:58:17.575Z,99796.72
2023-04-02T01:00:50.784Z,99805.75
2023-04-02T01:03:19.561Z,99795.69
2023-04-02T01:05:50.616Z,99792.88
2023-04-02T01:08:27.709Z,99798.38
2023-04-02T01:11:04.803Z,99798.22
2023-04-02T01:13:35.738Z,99798.06
2023-04-02T01:16:17.068Z,99795.06
2023-04-02T01:19:18.490Z,99798.06
2023-04-02T01:22:03.246Z,99794.06
2023-04-02T01:24:34.080Z,99797.78
2023-04-02T01:27:05.707Z,99792.09
2023-04-02T01:29:40.331Z,99788.72
2023-04-02T01:32:13.959Z,99789.38
2023-04-02T01:34:46.119Z,99796.75
2023-04-02T01:37:32.816Z,99796.44
2023-04-02T01:40:31.150Z,99800.59
2023-04-02T01:43:11.072Z,99805.91
2023-04-02T01:45:39.585Z,99795.75
2023-04-02T01:48:18.115Z,99805.41
2023-04-02T01:50:49.987Z,99803.53
2023-04-02T01:53:21.807Z,99799.53
2023-04-02T01:56:01.800Z,99806.53
2023-04-02T01:58:32.566Z,99809.72
2023-04-02T02:01:17.488Z,99816.88
2023-04-02T02:03:46.173Z,99806.06
2023-04-02T02:06:16.885Z,99814.09
2023-04-02T02:08:54.357Z,99817.78
2023-04-02T02:11:26.435Z,99823.78
2023-04-02T02:13:58.402Z,99826.44
2023-04-02T02:16:28.460Z,99833.50
2023-04-02T02:19:05.066Z,99834.00
2023-04-02T02:21:43.503Z,99842.19
2023-04-02T02:24:32.422Z,99844.88
2023-04-02T02:27:18.847Z,99847.91
2023-04-02T02:29:56.978Z,99844.88
2023-04-02T02:32:29.637Z,99847.19
2023-04-02T02:35:20.178Z,99846.84
2023-04-02T02:37:57.742Z,99856.34
2023-04-02T02:40:37.042Z,99863.78
2023-04-02T02:43:10.571Z,99865.22
2023-04-02T02:45:41.278Z,99871.84
2023-04-02T02:48:15.651Z,99868.47
2023-04-02T02:50:44.966Z,99871.56
2023-04-02T02:53:22.676Z,99887.63
2023-04-02T02:55:57.221Z,99894.94
2023-04-02T02:58:32.107Z,99891.09
2023-04-02T03:01:23.329Z,99893.94
2023-04-02T03:03:55.531Z,99883.56
2023-04-02T03:06:25.548Z,99891.59
2023-04-02T03:09:07.135Z,99892.53
2023-04-02T03:11:46.892Z,99886.88
2023-04-02T03:14:46.854Z,99888.19
2023-04-02T03:17:25.671Z,99898.34
2023-04-02T03:20:14.915Z,99892.91
2023-04-02T03:22:49.584Z,99904.22
2023-04-02T03:25:37.658Z,99900.88
2023-04-02T03:28:13.485Z,99904.75
2023-04-02T03:30:58.205Z,99908.81
2023-04-02T03:33:35.168Z,99907.03
2023-04-02T03:36:20.331Z,99905.00
2023-04-02T03:39:01.553Z,99905.94
2023-04-02T03:41:38.307Z,99907.13
2023-04-02T03:44:19.658Z,99913.84
2023-04-02T03:46:57.641Z,99913.38
2023-04-02T03:49:37.042Z,99913.00
2023-04-02T03:52:14.636Z,99912.38
2023-04-02T03:54:54.226Z,99910.44
2023-04-02T03:57:38.872Z,99907.97
2023-04-02T04:00:20.496Z,99917.38
2023-04-02T04:02:59.413Z,99925.78
2023-04-02T04:05:32.511Z,99927.16
2023-04-02T04:08:14.106Z,99933.97
2023-04-02T04:10:43.593Z,99935.09
2023-04-02T04:13:21.104Z,99941.13
2023-04-02T04:15:58.516Z,99944.50
2023-04-02T04:18:35.189Z,99952.38
2023-04-02T04:21:37.569Z,99947.97
2023-04-02T04:24:22.834Z,99947.53
2023-04-02T04:27:13.364Z,99948.78
2023-04-02T04:30:04.448Z,99943.75
2023-04-02T04:32:39.406Z,99959.69
2023-04-02T04:35:35.575Z,99953.28
2023-04-02T04:38:12.268Z,99967.72
2023-04-02T04:40:52.726Z,99965.97
2023-04-02T04:43:44.134Z,99979.91
2023-04-02T04:46:28.405Z,99983.63
2023-04-02T04:49:14.349Z,99993.22
2023-04-02T04:51:48.506Z,99989.41
2023-04-02T04:54:17.358Z,100004.38
2023-04-02T04:56:51.933Z,99997.81
2023-04-02T04:59:36.626Z,100018.28
2023-04-02T05:02:17.667Z,100016.34
2023-04-02T05:04:51.902Z,100022.63
2023-04-02T05:07:31.911Z,100023.63
2023-04-02T05:10:17.484Z,100031.44
2023-04-02T05:12:59.457Z,100035.69
2023-04-02T05:15:42.448Z,100028.03
2023-04-02T05:18:22.487Z,100029.97
2023-04-02T05:21:04.194Z,100041.84
2023-04-02T05:23:40.648Z,100040.84
2023-04-02T05:26:25.020Z,100046.56
2023-04-02T05:29:01.250Z,100042.84
2023-04-02T05:32:02.055Z,100045.38
2023-04-02T05:34:35.583Z,100055.84
2023-04-02T05:37:09.350Z,100049.56
2023-04-02T05:39:37.447Z,100074.41
2023-04-02T05:42:08.791Z,100061.81
2023-04-02T05:45:34.911Z,100073.53
2023-04-02T05:48:17.332Z,100086.16
2023-04-02T05:50:49.811Z,100092.69
2023-04-02T05:53:33.803Z,100093.91
2023-04-02T05:56:11.685Z,100114.69
2023-04-02T05:58:52.703Z,100112.78
2023-04-02T06:01:45.922Z,100118.53
2023-04-02T06:04:36.420Z,100125.91
2023-04-02T06:07:11.496Z,100129.97
2023-04-02T06:10:00.928Z,100127.59
2023-04-02T06:12:49.767Z,100139.88
2023-04-02T06:15:23.766Z,100143.34
2023-04-02T06:17:59.471Z,100141.63
2023-04-02T06:20:28.443Z,100138.41
2023-04-02T06:23:14.398Z,100146.13
2023-04-02T06:25:49.808Z,100150.19
2023-04-02T06:28:26.537Z,100154.38
2023-04-02T06:31:01.260Z,100156.63
2023-04-02T06:33:35.766Z,100165.84
2023-04-02T06:36:05.296Z,100173.09
2023-04-02T06:41:21.518Z,100183.22
2023-04-02T06:44:20.373Z,100186.19
2023-04-02T06:47:00.263Z,100176.31
2023-04-02T06:49:51.590Z,100178.81
2023-04-02T06:52:51.297Z,100189.28
2023-04-02T06:55:49.143Z,100170.59
2023-04-02T06:58:22.055Z,100173.34
2023-04-02T07:00:52.167Z,100184.63
2023-04-02T07:03:31.808Z,100195.38
2023-04-02T07:06:06.001Z,100199.38
2023-04-02T07:08:35.612Z,100203.31
2023-04-02T07:11:03.483Z,100201.94
2023-04-02T07:13:31.549Z,100207.28
2023-04-02T07:15:59.512Z,100207.69
2023-04-02T07:18:55.647Z,100215.09
2023-04-02T07:21:24.394Z,100212.84
2023-04-02T07:23:53.013Z,100220.03
2023-04-02T07:26:25.833Z,100232.25
2023-04-02T07:28:57.232Z,100229.50
2023-04-02T07:31:28.506Z,100223.09
2023-04-02T07:34:00.325Z,100238.63
2023-04-02T07:36:29.878Z,100242.38
2023-04-02T07:38:58.283Z,100246.56
2023-04-02T07:41:27.793Z,100245.81
2023-04-02T07:43:55.661Z,100258.00
2023-04-02T07:46:23.612Z,100266.56
2023-04-02T07:48:51.658Z,100261.81
2023-04-02T07:51:23.257Z,100263.75
2023-04-02T07:53:56.160Z,100273.81
2023-04-02T07:56:25.458Z,100274.13
2023-04-02T07:58:53.197Z,100272.19
2023-04-02T08:01:26.710Z,100271.75
2023-04-02T08:03:56.013Z,100274.47
2023-04-02T08:06:24.808Z,100283.50
2023-04-02T08:08:52.865Z,100284.81
2023-04-02T08:11:21.059Z,100289.78
2023-04-02T08:13:49.019Z,100287.47
2023-04-02T08:16:17.118Z,100296.72
2023-04-02T08:18:47.970Z,100294.31
2023-04-02T08:21:16.651Z,100297.47
2023-04-02T08:23:45.205Z,100298.75
2023-04-02T08:26:18.753Z,100297.00
2023-04-02T08:28:46.836Z,100301.63
2023-04-02T08:31:14.840Z,100299.22
2023-04-02T08:33:42.893Z,100303.78
2023-04-02T08:36:18.214Z,100314.25
2023-04-02T08:38:47.116Z,100313.56
2023-04-02T08:41:28.052Z,100322.50
2023-04-02T08:44:32.465Z,100334.00
2023-04-02T08:47:06.519Z,100337.38
2023-04-02T08:49:43.235Z,100318.97
2023-04-02T08:52:26.867Z,100326.41
2023-04-02T08:54:56.769Z,100329.56
2023-04-02T08:57:27.740Z,100331.22
2023-04-02T09:00:07.905Z,100318.09
2023-04-02T09:02:46.230Z,100302.94
2023-04-02T09:05:23.305Z,100308.53
2023-04-02T09:07:52.854Z,100322.66
2023-04-02T09:10:23.282Z,100334.81
2023-04-02T09:12:53.521Z,100333.16
2023-04-02T09:15:41.714Z,100335.22
2023-04-02T09:18:16.969Z,100330.28
2023-04-02T09:20:46.227Z,100332.59
2023-04-02T09:23:24.038Z,100336.44
2023-04-02T09:26:03.592Z,100342.16
2023-04-02T09:28:32.531Z,100347.72
2023-04-02T09:31:18.328Z,100336.06
2023-04-02T09:33:50.488Z,100350.94
2023-04-02T09:36:33.661Z,100349.84
2023-04-02T09:39:23.369Z,100346.75
2023-04-02T09:42:02.793Z,100346.34
2023-04-02T09:44:34.318Z,100348.53
2023-04-02T09:47:05.581Z,100351.31
2023-04-02T09:49:36.953Z,100353.44
2023-04-02T09:52:41.870Z,100360.25
2023-04-02T09:55:18.598Z,100360.75
2023-04-02T09:57:48.332Z,100356.59
2023-04-02T10:00:32.068Z,100357.09
2023-04-02T10:03:30.299Z,100355.72
2023-04-02T10:06:13.263Z,100351.47
2023-04-02T10:08:44.391Z,100356.00
2023-04-02T10:11:46.400Z,100341.44
2023-04-02T10:14:22.075Z,100334.94
2023-04-02T10:16:58.261Z,100339.50
2023-04-02T10:19:34.587Z,100334.81
2023-04-02T10:22:09.586Z,100331.94
2023-04-02T10:24:37.576Z,100339.38
2023-04-02T10:27:23.045Z,100331.44
2023-04-02T10:30:09.729Z,100330.56
2023-04-02T10:33:01.512Z,100330.22
2023-04-02T10:36:12.241Z,100315.13
2023-04-02T10:39:16.313Z,100318.59
2023-04-02T10:41:48.899Z,100318.19
2023-04-02T10:44:29.886Z,100313.34
2023-04-02T10:47:19.076Z,100319.88
2023-04-02T10:50:14.460Z,100316.84
2023-04-02T10:53:06.389Z,100312.72
2023-04-02T10:55:41.079Z,100309.50
2023-04-02T10:58:24.526Z,100309.00
2023-04-02T11:01:02.177Z,100310.84
2023-04-02T11:03:42.307Z,100302.81
2023-04-02T11:06:22.826Z,100316.84
2023-04-02T11:08:54.126Z,100315.22
2023-04-02T11:11:26.992Z,100324.13
2023-04-02T11:14:12.956Z,100327.44
2023-04-02T11:16:44.635Z,100339.78
2023-04-02T11:19:18.891Z,100330.38
2023-04-02T11:22:11.086Z,100342.09
2023-04-02T11:24:53.813Z,100361.44
2023-04-02T11:27:34.078Z,100371.88
2023-04-02T11:30:18.806Z,100369.53
2023-04-02T11:32:49.875Z,100374.16
2023-04-02T11:35:32.341Z,100379.41
2023-04-02T11:38:24.121Z,100386.16
2023-04-02T11:40:59.537Z,100378.41
2023-04-02T11:43:33.534Z,100394.47
2023-04-02T11:46:16.818Z,100409.81
2023-04-02T11:48:44.687Z,100409.09
2023-04-02T11:51:36.297Z,100407.13
2023-04-02T11:54:05.136Z,100411.63
2023-04-02T11:56:41.176Z,100430.22
2023-04-02T11:59:33.625Z,100426.19
2023-04-02T12:02:07.429Z,100422.78
2023-04-02T12:05:07.733Z,100412.41
2023-04-02T12:08:06.063Z,100402.59
2023-04-02T12:11:03.914Z,100410.31
2023-04-02T12:13:41.367Z,100414.78
2023-04-02T12:16:12.336Z,100424.03
2023-04-02T12:18:48.824Z,100401.47
2023-04-02T12:21:18.547Z,100395.38
2023-04-02T12:23:48.637Z,100382.94
2023-04-02T12:26:43.126Z,100377.91
2023-04-02T12:29:28.694Z,100370.72
2023-04-02T12:31:59.135Z,100359.16
2023-04-02T12:34:30.315Z,100348.94
2023-04-02T12:37:03.341Z,100348.97
2023-04-02T12:39:35.242Z,100345.06
2023-04-02T12:42:03.143Z,100338.72
2023-04-02T12:44:31.511Z,100339.13
2023-04-02T12:46:59.681Z,100323.91
2023-04-02T12:49:44.449Z,100317.78
2023-04-02T12:52:15.571Z,100313.25
2023-04-02T12:54:50.649Z,100310.50
2023-04-02T12:57:25.573Z,100310.97
2023-04-02T12:59:55.756Z,100305.91
2023-04-02T13:02:26.512Z,100298.09
2023-04-02T13:04:57.615Z,100281.44
2023-04-02T13:10:25.843Z,100297.22
2023-04-02T13:13:02.182Z,100292.28
2023-04-02T13:15:33.321Z,100289.75
2023-04-02T13:18:13.359Z,100276.50
2023-04-02T13:20:43.618Z,100277.00
2023-04-02T13:23:29.892Z,100266.47
2023-04-02T13:26:00.130Z,100263.84
2023-04-02T13:28:29.370Z,100262.59
2023-04-02T13:30:58.149Z,100261.47
2023-04-02T13:33:27.674Z,100250.16
2023-04-02T13:35:55.783Z,100251.47
2023-04-02T13:38:24.473Z,100247.66
2023-04-02T13:40:52.533Z,100251.38
2023-04-02T13:43:21.129Z,100245.03
2023-04-02T13:45:55.688Z,100239.88
2023-04-02T13:48:26.376Z,100249.88
2023-04-02T13:50:54.353Z,100253.91
2023-04-02T13:53:29.731Z,100257.91
2023-04-02T13:55:57.750Z,100251.13
2023-04-02T13:58:25.828Z,100253.63
2023-04-02T14:00:55.075Z,100254.00
2023-04-02T14:03:24.214Z,100253.06
2023-04-02T14:06:25.553Z,100248.22
2023-04-02T14:09:28.514Z,100249.28
2023-04-02T14:12:12.804Z,100250.53
2023-04-02T14:14:48.420Z,100244.88
2023-04-02T14:17:29.866Z,100241.81
2023-04-02T14:20:23.279Z,100245.97
2023-04-02T14:23:06.544Z,100243.97
2023-04-02T14:25:55.598Z,100251.84
2023-04-02T14:28:43.070Z,100251.16
2023-04-02T14:31:48.882Z,100252.75
2023-04-02T14:34:16.690Z,100252.00
2023-04-02T14:36:56.625Z,100248.09
2023-04-02T14:39:50.994Z,100243.16
2023-04-02T14:42:27.519Z,100236.44
2023-04-02T14:45:12.271Z,100242.03
2023-04-02T14:47:45.572Z,100247.00
2023-04-02T14:50:28.163Z,100241.19
2023-04-02T14:53:02.037Z,100241.66
2023-04-02T14:55:35.241Z,100241.50
2023-04-02T14:58:09.440Z,100236.88
2023-04-02T15:00:50.132Z,100242.34
2023-04-02T15:03:26.807Z,100240.34
2023-04-02T15:06:10.877Z,100248.31
2023-04-02T15:09:09.683Z,100248.72
2023-04-02T15:11:42.558Z,100246.41
2023-04-02T15:14:11.340Z,100250.41
2023-04-02T15:16:48.702Z,100252.47
2023-04-02T15:19:18.605Z,100248.50
2023-04-02T15:22:13.480Z,100248.72
2023-04-02T15:24:42.890Z,100243.28
2023-04-02T15:27:38.877Z,100241.19
2023-04-02T15:30:15.006Z,100241.41
2023-04-02T15:32:47.259Z,100246.25
2023-04-02T15:35:43.862Z,100253.88
2023-04-02T15:38:17.417Z,100249.06
2023-04-02T15:41:06.731Z,100246.44
2023-04-02T15:43:55.078Z,100245.22
2023-04-02T15:46:39.367Z,100246.09
2023-04-02T15:49:29.740Z,100251.28
2023-04-02T15:52:15.145Z,100249.31
2023-04-02T15:54:42.978Z,100247.16
2023-04-02T15:57:34.336Z,100252.59
2023-04-02T16:00:15.553Z,100253.16
2023-04-02T16:02:59.220Z,100259.03
2023-04-02T16:05:53.770Z,100252.50
2023-04-02T16:08:40.340Z,100251.59
2023-04-02T16:11:13.515Z,100250.81
2023-04-02T16:13:43.152Z,100265.66
2023-04-02T16:16:31.382Z,100265.72
2023-04-02T16:19:45.481Z,100261.84
2023-04-02T16:22:24.959Z,100266.75
2023-04-02T16:25:19.709Z,100268.56
2023-04-02T16:27:54.658Z,100275.13
2023-04-02T16:30:36.570Z,100277.44
2023-04-02T16:33:33.318Z,100277.44
2023-04-02T16:36:05.623Z,100291.19
2023-04-02T16:39:10.968Z,100282.75
2023-04-02T16:42:19.333Z,100297.72
2023-04-02T16:44:59.357Z,100285.25
2023-04-02T16:47:50.492Z,100304.72
2023-04-02T16:51:02.572Z,100300.16
2023-04-02T16:53:30.500Z,100306.94
2023-04-02T16:56:41.559Z,100297.91
2023-04-02T16:59:18.489Z,100306.78
2023-04-02T17:02:35.569Z,100299.50
2023-04-02T17:05:31.559Z,100309.97
2023-04-02T17:08:21.581Z,100319.25
2023-04-02T17:11:00.357Z,100309.28
2023-04-02T17:13:47.367Z,100312.47
2023-04-02T17:16:22.109Z,100309.22
2023-04-02T17:18:55.687Z,100318.97
2023-04-02T17:21:30.271Z,100311.53
2023-04-02T17:24:18.061Z,100318.22
2023-04-02T17:26:53.126Z,100306.97
2023-04-02T17:29:27.447Z,100319.91
2023-04-02T17:32:01.386Z,100309.59
2023-04-02T17:34:30.046Z,100312.38
2023-04-02T17:37:21.866Z,100322.84
2023-04-02T17:40:09.450Z,100328.66
2023-04-02T17:43:10.723Z,100334.88
2023-04-02T17:45:53.528Z,100339.03
2023-04-02T17:48:32.489Z,100342.31
2023-04-02T17:51:18.179Z,100338.22
2023-04-02T17:54:25.923Z,100352.03
2023-04-02T17:57:08.595Z,100349.53
2023-04-02T18:00:21.002Z,100368.09
2023-04-02T18:03:21.687Z,100368.56
2023-04-02T18:06:01.135Z,100375.00
2023-04-02T18:08:50.589Z,100383.09
2023-04-02T18:11:39.865Z,100400.56
2023-04-02T18:14:38.371Z,100395.31
2023-04-02T18:17:35.333Z,100402.44
2023-04-02T18:20:28.067Z,100397.34
2023-04-02T18:23:12.570Z,100410.34
2023-04-02T18:25:55.504Z,100413.69
2023-04-02T18:28:44.936Z,100420.66
2023-04-02T18:31:42.541Z,100426.63
2023-04-02T18:34:40.119Z,100428.00
2023-04-02T18:37:15.217Z,100435.06
2023-04-02T18:40:01.385Z,100437.66
2023-04-02T18:42:40.277Z,100432.19
2023-04-02T18:45:30.075Z,100442.66
2023-04-02T18:48:34.678Z,100443.75
2023-04-02T18:51:05.841Z,100447.63
2023-04-02T18:53:42.668Z,100446.44
2023-04-02T18:56:16.544Z,100446.38
2023-04-02T18:59:00.424Z,100455.97
2023-04-02T19:01:53.485Z,100456.31
2023-04-02T19:04:30.988Z,100455.84
2023-04-02T19:07:11.414Z,100459.28
2023-04-02T19:09:44.837Z,100471.69
2023-04-02T19:12:22.403Z,100464.41
2023-04-02T19:14:51.956Z,100471.91
2023-04-02T19:18:07.446Z,100468.19
2023-04-02T19:20:58.836Z,100479.41
2023-04-02T19:26:25.165Z,100489.50
2023-04-02T19:29:17.199Z,100491.34
2023-04-02T19:31:51.360Z,100486.84
2023-04-02T19:34:40.187Z,100479.03
2023-04-02T19:37:28.970Z,100486.63
2023-04-02T19:40:08.170Z,100486.88
2023-04-02T19:42:48.486Z,100493.97
2023-04-02T19:45:28.871Z,100498.59
2023-04-02T19:48:00.886Z,100496.06
2023-04-02T19:50:30.115Z,100502.00
2023-04-02T19:53:03.082Z,100509.16
2023-04-02T19:55:32.029Z,100520.34
2023-04-02T19:58:17.358Z,100525.97
2023-04-02T20:00:50.380Z,100522.63
2023-04-02T20:03:18.398Z,100514.69
2023-04-02T20:05:48.193Z,100513.72
2023-04-02T20:08:17.035Z,100504.63
2023-04-02T20:10:45.918Z,100514.09
2023-04-02T20:13:14.150Z,100519.34
2023-04-02T20:15:42.067Z,100542.00
2023-04-02T20:18:12.210Z,100550.84
2023-04-02T20:20:40.571Z,100552.50
2023-04-02T20:23:16.426Z,100534.91
2023-04-02T20:25:46.549Z,100515.72
2023-04-02T20:28:16.701Z,100526.41
2023-04-02T20:30:44.865Z,100519.84
2023-04-02T20:33:14.986Z,100499.94
2023-04-02T20:35:47.364Z,100500.03
2023-04-02T20:38:16.637Z,100510.44
2023-04-02T20:40:46.582Z,100528.19
2023-04-02T20:43:29.823Z,100550.19
2023-04-02T20:46:01.156Z,100555.91
2023-04-02T20:48:32.891Z,100570.06
2023-04-02T20:51:03.354Z,100578.41
2023-04-02T20:53:33.093Z,100562.59
2023-04-02T20:56:09.273Z,100555.44
2023-04-02T20:58:38.363Z,100535.13
2023-04-02T21:01:11.114Z,100516.56
2023-04-02T21:03:40.218Z,100549.09
2023-04-02T21:06:17.569Z,100550.69
2023-04-02T21:08:49.425Z,100555.69
2023-04-02T21:11:18.381Z,100545.53
2023-04-02T21:13:46.543Z,100549.47
2023-04-02T21:16:20.679Z,100564.84
2023-04-02T21:18:51.772Z,100567.81
2023-04-02T21:21:21.442Z,100549.09
2023-04-02T21:23:55.610Z,100553.75
2023-04-02T21:26:23.848Z,100549.06
2023-04-02T21:28:51.783Z,100556.56
2023-04-02T21:31:22.486Z,100555.25
2023-04-02T21:33:53.412Z,100543.34
2023-04-02T21:36:28.794Z,100541.47
2023-04-02T21:39:06.704Z,100537.28
2023-04-02T21:41:36.853Z,100528.91
2023-04-02T21:44:08.596Z,100530.22
2023-04-02T21:46:38.881Z,100525.25
2023-04-02T21:49:10.217Z,100516.63
2023-04-02T21:51:39.852Z,100524.25
2023-04-02T21:54:08.334Z,100536.41
2023-04-02T21:56:39.370Z,100543.38
2023-04-02T21:59:09.825Z,100544.66
2023-04-02T22:01:41.942Z,100545.25
2023-04-02T22:04:12.336Z,100547.63
2023-04-02T22:06:42.314Z,100546.78
2023-04-02T22:09:15.629Z,100543.69
2023-04-02T22:11:54.709Z,100535.75
2023-04-02T22:17:08.658Z,100529.59
2023-04-02T22:19:36.594Z,100534.94
2023-04-02T22:22:04.403Z,100537.28
2023-04-02T22:24:32.412Z,100523.56
2023-04-02T22:27:00.405Z,100527.63
2023-04-02T22:29:28.433Z,100532.06
2023-04-02T22:32:14.666Z,100530.47
2023-04-02T22:34:45.829Z,100531.19
2023-04-02T22:37:13.753Z,100529.78
2023-04-02T22:39:50.820Z,100528.84
2023-04-02T22:42:18.673Z,100528.66
2023-04-02T22:45:05.594Z,100534.84
2023-04-02T22:47:33.397Z,100530.50
2023-04-02T22:50:01.561Z,100532.91
2023-04-02T22:55:16.049Z,100526.91
2023-04-02T22:57:44.114Z,100531.25
2023-04-02T23:00:16.073Z,100528.88
2023-04-02T23:07:52.478Z,100537.06
2023-04-02T23:10:20.649Z,100538.75
2023-04-02T23:12:48.737Z,100539.63
2023-04-02T23:15:17.460Z,100539.75
2023-04-02T23:17:45.440Z,100538.63
2023-04-02T23:20:13.461Z,100542.00
2023-04-02T23:22:41.404Z,100545.94
2023-04-02T23:25:09.408Z,100547.19
2023-04-02T23:27:37.408Z,100550.44
2023-04-02T23:30:06.687Z,100561.94
2023-04-02T23:32:34.695Z,100542.56
2023-04-02T23:35:02.585Z,100551.69
2023-04-02T23:37:30.615Z,100546.22
2023-04-02T23:39:58.569Z,100542.16
2023-04-02T23:42:27.284Z,100540.75
2023-04-02T23:44:56.546Z,100539.50
2023-04-02T23:47:24.558Z,100543.13
2023-04-02T23:49:52.561Z,100541.72
2023-04-02T23:52:20.416Z,100542.28
2023-04-02T23:54:48.418Z,100536.94
2023-04-02T23:57:17.371Z,100536.66
2023-04-02T23:59:45.348Z,100533.84
